createdAt,value
2023-03-06T00:02:44.643Z,97395.80
2023-03-06T00:07:51.893Z,97395.33
2023-03-06T00:13:00.069Z,97382.81
2023-03-06T00:18:08.374Z,97382.34
2023-03-06T00:23:15.786Z,97373.85
2023-03-06T00:28:23.369Z,97368.48
2023-03-06T00:33:30.624Z,97362.64
2023-03-06T00:38:37.932Z,97364.51
2023-03-06T00:43:45.180Z,97372.92
2023-03-06T00:48:52.221Z,97371.20
2023-03-06T00:53:59.446Z,97370.12
2023-03-06T00:59:06.803Z,97372.23
2023-03-06T01:04:14.948Z,97371.14
2023-03-06T01:09:22.394Z,97376.52
2023-03-06T01:14:29.737Z,97374.48
2023-03-06T01:19:36.725Z,97379.48
2023-03-06T01:24:44.080Z,97376.91
2023-03-06T01:29:51.265Z,97380.17
2023-03-06T01:34:58.536Z,97378.46
2023-03-06T01:40:06.059Z,97364.54
2023-03-06T01:45:26.929Z,97366.01
2023-03-06T01:50:34.129Z,97365.77
2023-03-06T01:55:41.452Z,97355.27
2023-03-06T02:00:48.778Z,97350.27
2023-03-06T02:05:56.585Z,97351.21
2023-03-06T02:11:11.692Z,97352.62
2023-03-06T02:16:19.467Z,97348.65
2023-03-06T02:21:29.083Z,97338.84
2023-03-06T02:26:37.924Z,97344.67
2023-03-06T02:31:45.303Z,97341.88
2023-03-06T02:36:53.867Z,97336.04
2023-03-06T02:42:01.515Z,97335.34
2023-03-06T02:47:09.314Z,97338.92
2023-03-06T02:52:16.760Z,97338.08
2023-03-06T02:57:24.098Z,97328.48
2023-03-06T03:02:31.447Z,97334.88
2023-03-06T03:07:38.919Z,97340.25
2023-03-06T03:12:46.435Z,97337.91
2023-03-06T03:17:53.678Z,97335.67
2023-03-06T03:23:00.978Z,97328.02
2023-03-06T03:28:08.550Z,97319.08
2023-03-06T03:33:15.921Z,97315.04
2023-03-06T03:38:23.211Z,97312.30
2023-03-06T03:43:30.340Z,97300.33
2023-03-06T03:48:37.633Z,97299.14
2023-03-06T03:53:45.542Z,97295.98
2023-03-06T03:58:52.665Z,97298.85
2023-03-06T04:03:59.686Z,97299.80
2023-03-06T04:09:07.256Z,97302.59
2023-03-06T04:14:14.704Z,97286.64
2023-03-06T04:19:21.988Z,97286.48
2023-03-06T04:24:29.307Z,97283.75
2023-03-06T04:29:36.768Z,97281.27
2023-03-06T04:34:44.119Z,97278.46
2023-03-06T04:39:51.542Z,97275.67
2023-03-06T04:44:59.121Z,97264.16
2023-03-06T04:50:06.853Z,97264.23
2023-03-06T04:55:15.021Z,97260.04
2023-03-06T05:00:24.181Z,97259.09
2023-03-06T05:05:32.193Z,97253.27
2023-03-06T05:10:39.537Z,97250.77
2023-03-06T05:15:46.524Z,97242.20
2023-03-06T05:20:53.824Z,97240.73
2023-03-06T05:26:01.424Z,97237.63
2023-03-06T05:31:09.182Z,97226.89
2023-03-06T05:36:16.306Z,97225.19
2023-03-06T05:41:23.681Z,97225.80
2023-03-06T05:46:30.929Z,97230.46
2023-03-06T05:51:38.150Z,97225.89
2023-03-06T05:56:45.641Z,97223.23
2023-03-06T06:01:52.803Z,97229.85
2023-03-06T06:07:01.185Z,97231.09
2023-03-06T06:12:09.156Z,97223.86
2023-03-06T06:17:17.070Z,97226.35
2023-03-06T06:22:24.386Z,97228.14
2023-03-06T06:27:31.509Z,97226.04
2023-03-06T06:32:39.001Z,97228.21
2023-03-06T06:37:46.484Z,97228.85
2023-03-06T06:42:54.246Z,97233.13
2023-03-06T06:48:01.866Z,97231.95
2023-03-06T06:53:09.209Z,97229.85
2023-03-06T06:58:16.347Z,97229.92
2023-03-06T07:03:23.497Z,97226.41
2023-03-06T07:08:31.322Z,97231.24
2023-03-06T07:13:38.634Z,97231.23
2023-03-06T07:18:46.130Z,97238.24
2023-03-06T07:23:54.717Z,97237.92
2023-03-06T07:29:02.255Z,97238.63
2023-03-06T07:34:09.618Z,97243.62
2023-03-06T07:39:16.937Z,97239.88
2023-03-06T07:44:24.600Z,97237.69
2023-03-06T07:49:32.141Z,97243.61
2023-03-06T07:54:39.572Z,97245.47
2023-03-06T07:59:47.226Z,97248.52
2023-03-06T08:04:57.725Z,97247.27
2023-03-06T08:10:05.106Z,97248.12
2023-03-06T08:15:13.640Z,97245.85
2023-03-06T08:20:21.240Z,97245.38
2023-03-06T08:25:28.365Z,97247.80
2023-03-06T08:30:35.504Z,97245.68
2023-03-06T08:35:42.802Z,97245.98
2023-03-06T08:40:50.427Z,97246.61
2023-03-06T08:45:58.472Z,97250.52
2023-03-06T08:51:05.687Z,97254.94
2023-03-06T08:56:18.285Z,97255.48
2023-03-06T09:01:26.573Z,97250.34
2023-03-06T09:06:34.930Z,97257.42
2023-03-06T09:11:42.311Z,97256.41
2023-03-06T09:16:49.294Z,97258.81
2023-03-06T09:21:58.218Z,97255.55
2023-03-06T09:27:06.158Z,97252.44
2023-03-06T09:32:13.929Z,97251.96
2023-03-06T09:37:22.242Z,97249.23
2023-03-06T09:42:30.928Z,97244.47
2023-03-06T09:47:48.046Z,97247.18
2023-03-06T09:53:05.285Z,97240.38
2023-03-06T09:58:16.000Z,97239.42
2023-03-06T10:03:24.697Z,97237.56
2023-03-06T10:08:36.947Z,97233.97
2023-03-06T10:13:45.586Z,97231.48
2023-03-06T10:18:53.230Z,97233.80
2023-03-06T10:24:04.758Z,97234.58
2023-03-06T10:29:33.250Z,97224.98
2023-03-06T10:34:41.608Z,97226.23
2023-03-06T10:39:48.819Z,97215.72
2023-03-06T10:45:08.061Z,97210.04
2023-03-06T10:50:24.771Z,97211.13
2023-03-06T10:55:32.910Z,97204.60
2023-03-06T11:00:40.701Z,97202.68
2023-03-06T11:05:58.721Z,97198.88
2023-03-06T11:11:07.030Z,97192.03
2023-03-06T11:16:25.865Z,97184.09
2023-03-06T11:21:34.066Z,97179.96
2023-03-06T11:26:43.616Z,97169.85
2023-03-06T11:31:54.268Z,97165.04
2023-03-06T11:37:03.796Z,97159.66
2023-03-06T11:42:15.233Z,97150.88
2023-03-06T11:47:24.815Z,97145.04
2023-03-06T11:52:38.232Z,97137.49
2023-03-06T11:57:49.018Z,97131.19
2023-03-06T12:03:24.848Z,97130.58
2023-03-06T12:08:48.791Z,97128.40
2023-03-06T12:14:04.139Z,97126.76
2023-03-06T12:19:18.401Z,97122.56
2023-03-06T12:24:36.019Z,97116.42
2023-03-06T12:29:51.954Z,97104.41
2023-03-06T12:35:06.369Z,97098.20
2023-03-06T12:40:30.165Z,97094.86
2023-03-06T12:45:38.676Z,97089.02
2023-03-06T12:50:47.064Z,97079.38
2023-03-06T12:55:54.997Z,97073.08
2023-03-06T13:01:10.548Z,97059.52
2023-03-06T13:06:34.170Z,97049.73
2023-03-06T13:12:12.859Z,97048.30
2023-03-06T13:17:42.773Z,97046.67
2023-03-06T13:22:50.342Z,97038.83
2023-03-06T13:28:04.964Z,97036.89
2023-03-06T13:33:26.219Z,97031.84
2023-03-06T13:38:38.066Z,97030.98
2023-03-06T13:43:45.732Z,97031.99
2023-03-06T13:49:04.978Z,97030.38
2023-03-06T13:54:26.095Z,97033.09
2023-03-06T13:59:57.014Z,97023.84
2023-03-06T14:05:14.414Z,97016.44
2023-03-06T14:10:25.718Z,97013.95
2023-03-06T14:15:37.282Z,97008.52
2023-03-06T14:20:45.343Z,97012.33
2023-03-06T14:25:55.834Z,97011.70
2023-03-06T14:31:03.884Z,97012.65
2023-03-06T14:36:14.688Z,97010.40
2023-03-06T14:41:31.586Z,97010.02
2023-03-06T14:46:39.041Z,97013.91
2023-03-06T14:51:47.610Z,97031.69
2023-03-06T14:56:56.939Z,97046.15
2023-03-06T15:02:06.379Z,97055.17
2023-03-06T15:07:15.801Z,97054.73
2023-03-06T15:12:36.467Z,97049.10
2023-03-06T15:17:44.416Z,97046.29
2023-03-06T15:22:53.699Z,97042.10
2023-03-06T15:28:01.598Z,97042.25
2023-03-06T15:33:13.203Z,97043.98
2023-03-06T15:38:27.863Z,97042.74
2023-03-06T15:43:36.480Z,97044.30
2023-03-06T15:48:52.922Z,97046.73
2023-03-06T15:54:11.387Z,97047.20
2023-03-06T15:59:22.141Z,97041.58
2023-03-06T16:04:29.549Z,97036.61
2023-03-06T16:09:37.151Z,97034.75
2023-03-06T16:14:44.671Z,97035.23
2023-03-06T16:19:52.020Z,97038.02
2023-03-06T16:24:59.528Z,97039.59
2023-03-06T16:30:07.406Z,97043.25
2023-03-06T16:35:15.142Z,97038.27
2023-03-06T16:40:23.893Z,97038.66
2023-03-06T16:45:31.311Z,97035.79
2023-03-06T16:50:40.149Z,97031.52
2023-03-06T16:55:47.425Z,97027.00
2023-03-06T17:00:54.974Z,97027.71
2023-03-06T17:06:02.645Z,97027.63
2023-03-06T17:11:10.477Z,97026.61
2023-03-06T17:16:18.609Z,97027.56
2023-03-06T17:21:27.724Z,97027.55
2023-03-06T17:26:36.970Z,97034.41
2023-03-06T17:31:44.401Z,97049.19
2023-03-06T17:36:51.758Z,97043.60
2023-03-06T17:41:59.267Z,97043.45
2023-03-06T17:47:06.872Z,97041.50
2023-03-06T17:52:14.245Z,97043.67
2023-03-06T17:57:21.789Z,97054.41
2023-03-06T18:02:29.324Z,97061.26
2023-03-06T18:07:36.647Z,97060.41
2023-03-06T18:12:45.004Z,97055.35
2023-03-06T18:17:52.700Z,97055.67
2023-03-06T18:23:04.321Z,97052.41
2023-03-06T18:28:12.421Z,97056.36
2023-03-06T18:33:20.595Z,97054.97
2023-03-06T18:38:27.894Z,97058.40
2023-03-06T18:43:35.235Z,97061.13
2023-03-06T18:48:45.617Z,97070.76
2023-03-06T18:53:53.039Z,97069.84
2023-03-06T18:59:02.486Z,97072.17
2023-03-06T19:04:10.392Z,97071.31
2023-03-06T19:09:18.217Z,97069.76
2023-03-06T19:14:25.394Z,97066.19
2023-03-06T19:19:32.875Z,97059.49
2023-03-06T19:24:40.557Z,97061.13
2023-03-06T19:29:47.994Z,97056.69
2023-03-06T19:34:59.284Z,97051.80
2023-03-06T19:40:07.325Z,97052.02
2023-03-06T19:45:15.120Z,97046.27
2023-03-06T19:50:22.834Z,97047.45
2023-03-06T19:55:32.197Z,97043.63
2023-03-06T20:00:39.950Z,97041.92
2023-03-06T20:05:50.133Z,97039.90
2023-03-06T20:10:57.616Z,97037.48
2023-03-06T20:16:05.958Z,97039.67
2023-03-06T20:21:13.649Z,97039.37
2023-03-06T20:26:21.560Z,97040.14
2023-03-06T20:31:29.757Z,97037.58
2023-03-06T20:36:39.609Z,97035.40
2023-03-06T20:41:47.213Z,97036.95
2023-03-06T20:46:55.596Z,97035.10
2023-03-06T20:52:02.957Z,97035.96
2023-03-06T20:57:10.086Z,97039.69
2023-03-06T21:02:18.297Z,97039.30
2023-03-06T21:07:25.517Z,97030.67
2023-03-06T21:12:32.956Z,97031.60
2023-03-06T21:17:40.227Z,97031.92
2023-03-06T21:22:47.792Z,97035.11
2023-03-06T21:27:55.460Z,97037.77
2023-03-06T21:33:02.860Z,97037.36
2023-03-06T21:38:10.089Z,97038.30
2023-03-06T21:43:18.052Z,97040.19
2023-03-06T21:48:25.300Z,97036.29
2023-03-06T21:53:32.844Z,97032.18
2023-03-06T21:58:40.642Z,97033.34
2023-03-06T22:03:48.035Z,97031.24
2023-03-06T22:08:56.203Z,97026.89
2023-03-06T22:14:03.773Z,97028.92
2023-03-06T22:19:11.161Z,97018.41
2023-03-06T22:24:18.751Z,97013.45
2023-03-06T22:29:26.071Z,97016.95
2023-03-06T22:34:33.877Z,97017.72
2023-03-06T22:39:41.463Z,97014.32
2023-03-06T22:44:48.939Z,97016.80
2023-03-06T22:49:56.145Z,97014.02
2023-03-06T22:55:03.414Z,97014.55
2023-03-06T23:00:12.533Z,97015.63
2023-03-06T23:05:19.847Z,97015.79
2023-03-06T23:10:27.402Z,97015.17
2023-03-06T23:15:36.764Z,97013.15
2023-03-06T23:20:45.569Z,97015.25
2023-03-06T23:25:53.217Z,97011.92
2023-03-06T23:31:00.833Z,97013.00
2023-03-06T23:36:09.153Z,97012.61
2023-03-06T23:41:17.156Z,97010.45
2023-03-06T23:46:24.982Z,97019.39
2023-03-06T23:51:32.481Z,97017.60
2023-03-06T23:56:39.985Z,97016.66
